Time;durP1;ratioP1;P1;durP2;ratioP2;P2;SDS_P1;SDS_P2;PMS_P1;PMS_P2;Temp;Humidity;BMP_temperature;BMP_pressure;BME280_temperature;BME280_humidity;BME280_pressure;Samples;Min_cycle;Max_cycle;Signal;HPM_P1;HPM_P2
2022/08/05 00:03:52;;;;;;;4.28;3.38;;;16.70;99.90;;;;;;21021351;28;20032;-67
2022/08/05 00:13:54;;;;;;;5.20;4.30;;;16.70;99.90;;;;;;21001908;28;20074;-69
2022/08/05 00:23:59;;;;;;;3.65;3.10;;;16.80;99.90;;;;;;21044462;28;20069;-64
2022/08/05 00:34:03;;;;;;;5.20;3.08;;;16.80;99.90;;;;;;21060091;28;20044;-61
2022/08/05 00:44:05;;;;;;;4.25;3.85;;;16.70;99.90;;;;;;21060660;28;20405;-59
2022/08/05 00:54:07;;;;;;;5.05;3.50;;;16.70;99.90;;;;;;21058619;28;20032;-58
2022/08/05 01:04:09;;;;;;;4.57;3.25;;;16.90;99.90;;;;;;21021967;28;20027;-59
2022/08/05 01:14:30;;;;;;;5.10;2.60;;;16.90;99.90;;;;;;21040197;28;20036;-59
2022/08/05 01:24:53;;;;;;;5.85;3.10;;;16.80;99.90;;;;;;21055971;28;20093;-61
2022/08/05 01:35:01;;;;;;;3.83;2.80;;;16.60;99.90;;;;;;21081789;28;20105;-62
2022/08/05 01:45:06;;;;;;;3.75;2.75;;;16.60;99.90;;;;;;21157511;28;20051;-62
2022/08/05 01:55:11;;;;;;;4.28;3.80;;;16.50;99.90;;;;;;21137251;28;20032;-61
2022/08/05 02:05:15;;;;;;;6.55;3.15;;;16.50;99.90;;;;;;21057685;28;20106;-60
2022/08/05 02:15:42;;;;;;;5.68;3.00;;;16.60;99.90;;;;;;21009603;28;20028;-60
2022/08/05 02:25:45;;;;;;;4.30;3.90;;;16.50;99.90;;;;;;21051963;28;20032;-58
2022/08/05 02:35:49;;;;;;;5.55;4.13;;;16.50;99.90;;;;;;21050834;28;20040;-59
2022/08/05 02:45:53;;;;;;;3.53;3.10;;;16.50;99.90;;;;;;21050717;28;20097;-65
2022/08/05 02:55:56;;;;;;;6.20;4.00;;;16.50;99.90;;;;;;21048577;28;20410;-65
2022/08/05 03:06:00;;;;;;;6.10;4.70;;;16.40;99.90;;;;;;21133275;28;20163;-65
2022/08/05 03:16:03;;;;;;;6.43;4.75;;;16.40;99.90;;;;;;21091991;28;20097;-63
2022/08/05 03:26:05;;;;;;;4.65;3.60;;;16.50;99.90;;;;;;21049382;28;20044;-58
2022/08/05 03:36:09;;;;;;;7.60;4.22;;;16.40;99.90;;;;;;21061356;28;20043;-66
2022/08/05 03:46:11;;;;;;;4.53;3.70;;;16.30;99.90;;;;;;21139713;28;20036;-50
2022/08/05 03:56:27;;;;;;;6.70;4.72;;;16.30;99.90;;;;;;21146956;28;20092;-58
2022/08/05 04:06:32;;;;;;;6.78;4.43;;;16.20;99.90;;;;;;21081435;28;20082;-50
2022/08/05 04:16:35;;;;;;;5.05;3.70;;;16.20;99.90;;;;;;21101643;28;20093;-51
2022/08/05 04:26:38;;;;;;;5.32;4.13;;;16.10;99.90;;;;;;21144557;28;20043;-49
2022/08/05 04:36:40;;;;;;;9.10;4.13;;;16.20;99.90;;;;;;21143215;28;20084;-52
2022/08/05 04:46:43;;;;;;;5.00;4.50;;;16.30;99.90;;;;;;21061275;28;20036;-49
2022/08/05 04:56:46;;;;;;;4.63;3.85;;;16.40;99.90;;;;;;20994930;28;20120;-53
2022/08/05 05:06:48;;;;;;;6.00;3.95;;;16.60;99.90;;;;;;21057722;28;20031;-53
2022/08/05 05:16:51;;;;;;;4.20;3.25;;;16.80;99.90;;;;;;21057208;28;20036;-52
2022/08/05 05:26:53;;;;;;;4.32;3.85;;;16.70;99.90;;;;;;21037128;28;20546;-54
2022/08/05 05:36:56;;;;;;;4.07;3.78;;;16.80;99.90;;;;;;21055649;28;20121;-57
2022/08/05 05:46:59;;;;;;;7.25;3.72;;;17.00;99.90;;;;;;21047441;28;20040;-60
2022/08/05 05:57:01;;;;;;;3.90;3.17;;;17.20;99.90;;;;;;21004753;28;20032;-54
2022/08/05 06:07:03;;;;;;;3.65;2.80;;;17.30;99.90;;;;;;21025872;28;20031;-54
2022/08/05 06:17:05;;;;;;;4.40;2.78;;;17.60;99.90;;;;;;21007624;28;20106;-55
2022/08/05 06:27:07;;;;;;;3.78;2.05;;;18.00;99.90;;;;;;20999143;28;20032;-62
2022/08/05 06:37:11;;;;;;;3.13;2.30;;;18.40;99.90;;;;;;21037532;28;20565;-63
2022/08/05 06:47:13;;;;;;;3.33;2.08;;;23.50;97.70;;;;;;21061709;28;20036;-57
2022/08/05 06:57:17;;;;;;;3.75;2.10;;;24.70;96.10;;;;;;21029411;28;20057;-56
2022/08/05 07:07:19;;;;;;;3.38;2.15;;;26.20;92.90;;;;;;21029774;28;20567;-55
2022/08/05 07:17:21;;;;;;;4.13;2.00;;;27.00;90.30;;;;;;21027846;28;20031;-56
2022/08/05 07:27:24;;;;;;;4.63;2.15;;;27.80;88.60;;;;;;21009235;28;20161;-56
2022/08/05 07:37:26;;;;;;;4.82;2.00;;;28.50;88.10;;;;;;20995490;28;20109;-57
2022/08/05 07:47:29;;;;;;;2.45;2.00;;;28.90;86.00;;;;;;20990312;28;20513;-60
2022/08/05 07:57:31;;;;;;;4.15;2.40;;;29.20;85.40;;;;;;20987256;28;20029;-56
2022/08/05 08:07:33;;;;;;;3.13;2.42;;;29.20;82.10;;;;;;21017486;28;20036;-61
2022/08/05 08:17:36;;;;;;;3.40;2.08;;;29.40;84.80;;;;;;20984377;28;20543;-56
2022/08/05 08:27:38;;;;;;;4.70;2.53;;;29.60;82.00;;;;;;20993965;28;20036;-56
2022/08/05 08:37:41;;;;;;;5.38;2.47;;;29.80;82.20;;;;;;20998518;28;20070;-57
2022/08/05 08:47:46;;;;;;;2.72;2.40;;;29.70;82.00;;;;;;20998771;28;20090;-57
2022/08/05 08:57:48;;;;;;;3.63;2.50;;;30.00;82.80;;;;;;21037908;28;20036;-57
2022/08/05 09:07:51;;;;;;;5.20;2.90;;;30.60;82.50;;;;;;20995787;28;20032;-56
2022/08/05 09:17:54;;;;;;;3.25;2.33;;;30.90;78.30;;;;;;21056736;28;20036;-56
2022/08/05 09:28:08;;;;;;;2.20;2.00;;;30.50;79.70;;;;;;21055701;28;20078;-59
2022/08/05 09:38:11;;;;;;;;;;;30.30;77.50;;;;;;21015004;28;20096;-56
2022/08/05 09:48:25;;;;;;;2.50;2.30;;;30.50;77.10;;;;;;21136592;28;20308;-56
2022/08/05 09:58:28;;;;;;;4.43;2.20;;;30.80;77.20;;;;;;21137998;28;20468;-56
2022/08/05 10:08:31;;;;;;;3.10;1.83;;;31.00;73.90;;;;;;21054317;28;20028;-56
2022/08/05 10:18:36;;;;;;;2.25;1.90;;;30.90;75.20;;;;;;21051790;28;20542;-57
2022/08/05 10:28:40;;;;;;;2.70;2.08;;;31.10;74.80;;;;;;21052174;28;20394;-56
2022/08/05 10:38:46;;;;;;;2.83;2.30;;;31.10;71.90;;;;;;20990349;28;20056;-56
2022/08/05 10:48:58;;;;;;;3.50;2.10;;;31.00;71.70;;;;;;20987809;28;20074;-56
2022/08/05 10:59:04;;;;;;;2.88;1.80;;;30.80;70.50;;;;;;21070932;28;20035;-56
2022/08/05 11:09:11;;;;;;;3.20;1.92;;;30.60;71.80;;;;;;21132746;28;20031;-56
2022/08/05 11:19:25;;;;;;;4.00;1.90;;;30.70;72.90;;;;;;21112432;28;20561;-56
2022/08/05 11:29:34;;;;;;;2.72;1.70;;;31.10;70.90;;;;;;21060216;28;20473;-56
2022/08/05 11:39:51;;;;;;;2.58;1.60;;;31.20;72.70;;;;;;21048306;28;20091;-57
2022/08/05 11:49:57;;;;;;;3.97;1.60;;;31.40;71.10;;;;;;21048790;28;20036;-56
2022/08/05 12:00:00;;;;;;;5.35;1.95;;;31.50;71.60;;;;;;21048533;28;20036;-56
2022/08/05 12:10:03;;;;;;;3.67;1.90;;;31.50;69.20;;;;;;21001419;28;20057;-56
2022/08/05 12:20:07;;;;;;;3.33;2.10;;;31.20;70.10;;;;;;21082099;28;20035;-54
2022/08/05 12:30:11;;;;;;;3.88;2.22;;;31.40;72.10;;;;;;21009346;28;20040;-54
2022/08/05 12:40:15;;;;;;;3.22;2.20;;;31.00;72.20;;;;;;21028251;28;20105;-54
2022/08/05 12:50:18;;;;;;;5.32;2.78;;;31.40;74.50;;;;;;21058777;28;20489;-55
2022/08/05 13:00:24;;;;;;;6.35;2.97;;;31.50;74.00;;;;;;21055558;28;20085;-55
2022/08/05 13:10:30;;;;;;;3.80;2.70;;;31.70;72.60;;;;;;21140072;28;20436;-55
2022/08/05 13:20:34;;;;;;;3.03;2.60;;;31.60;75.10;;;;;;21119889;28;20036;-53
2022/08/05 13:30:36;;;;;;;7.03;3.10;;;31.60;71.20;;;;;;21073125;28;20039;-53
2022/08/05 13:40:39;;;;;;;4.18;2.83;;;31.50;72.10;;;;;;21102538;28;20048;-53
2022/08/05 13:50:42;;;;;;;2.88;2.60;;;31.60;72.70;;;;;;21053790;28;20117;-53
2022/08/05 14:00:44;;;;;;;2.60;2.40;;;31.70;72.70;;;;;;21036472;28;20040;-54
2022/08/05 14:10:47;;;;;;;4.25;2.90;;;31.70;72.40;;;;;;21051771;28;20385;-55
2022/08/05 14:20:49;;;;;;;3.53;2.90;;;32.10;72.20;;;;;;21052786;28;20049;-54
2022/08/05 14:30:52;;;;;;;6.57;2.90;;;32.20;70.00;;;;;;21050189;28;20389;-54
2022/08/05 14:40:55;;;;;;;5.10;3.03;;;32.20;70.20;;;;;;21050877;28;20048;-54
2022/08/05 14:50:58;;;;;;;3.17;2.87;;;32.20;71.30;;;;;;21050438;28;20055;-55
2022/08/05 15:01:00;;;;;;;3.55;3.15;;;32.20;69.70;;;;;;21016414;28;20085;-55
2022/08/05 15:11:03;;;;;;;3.78;3.47;;;32.70;67.50;;;;;;21049282;28;20368;-55
2022/08/05 15:21:07;;;;;;;4.38;3.33;;;32.90;68.70;;;;;;21048649;28;20035;-55
2022/08/05 15:31:10;;;;;;;3.88;3.15;;;;;;;;;;21047686;28;20032;-55
2022/08/05 15:41:13;;;;;;;3.50;3.20;;;33.30;66.40;;;;;;21056912;28;20032;-55
2022/08/05 15:51:21;;;;;;;4.03;3.73;;;33.60;66.90;;;;;;21063345;28;20108;-54
2022/08/05 16:01:24;;;;;;;5.80;3.70;;;33.50;67.10;;;;;;21031531;28;20087;-52
2022/08/05 16:11:27;;;;;;;6.88;4.18;;;33.40;65.40;;;;;;21052030;28;20032;-52
2022/08/05 16:21:29;;;;;;;4.78;3.47;;;32.40;66.20;;;;;;21018434;28;20089;-51
2022/08/05 16:31:32;;;;;;;5.03;3.33;;;30.90;67.70;;;;;;21023394;28;20055;-53
2022/08/05 16:41:36;;;;;;;3.30;3.00;;;28.80;71.40;;;;;;21058829;28;20113;-54
2022/08/05 16:51:39;;;;;;;3.65;3.35;;;26.20;78.50;;;;;;21058458;28;20039;-53
2022/08/05 17:01:43;;;;;;;4.63;3.20;;;24.70;83.10;;;;;;21057423;28;20028;-53
2022/08/05 17:11:45;;;;;;;4.50;3.20;;;23.70;88.00;;;;;;21056920;28;20089;-58
2022/08/05 17:21:49;;;;;;;7.32;3.50;;;23.20;90.20;;;;;;21023106;28;20125;-53
2022/08/05 17:31:51;;;;;;;9.73;4.20;;;22.70;90.80;;;;;;21054811;28;20399;-55
2022/08/05 17:41:54;;;;;;;5.53;4.25;;;22.60;90.80;;;;;;21038032;28;20048;-53
2022/08/05 17:51:56;;;;;;;5.95;4.00;;;22.40;91.50;;;;;;21053598;28;20431;-53
2022/08/05 18:02:01;;;;;;;8.02;4.30;;;22.40;91.20;;;;;;21049309;28;20031;-53
2022/08/05 18:12:04;;;;;;;4.35;3.95;;;22.00;91.90;;;;;;21135587;28;20061;-52
2022/08/05 18:22:06;;;;;;;8.73;4.65;;;21.50;93.30;;;;;;21134878;28;20039;-52
2022/08/05 18:32:09;;;;;;;11.25;8.07;;;21.00;94.40;;;;;;21134208;28;20109;-53
2022/08/05 18:42:11;;;;;;;6.90;5.18;;;20.70;95.30;;;;;;21133768;28;20063;-52
2022/08/05 18:52:33;;;;;;;6.85;4.55;;;20.40;96.30;;;;;;21132533;28;20039;-54
2022/08/05 19:02:37;;;;;;;6.82;5.22;;;20.10;97.20;;;;;;21098836;28;20100;-55
2022/08/05 19:12:39;;;;;;;8.85;5.88;;;20.10;97.40;;;;;;20994481;28;20097;-56
2022/08/05 19:22:42;;;;;;;8.13;6.20;;;19.80;98.40;;;;;;21065018;28;20043;-54
2022/08/05 19:32:45;;;;;;;8.57;5.35;;;19.60;99.10;;;;;;21018823;28;20101;-55
2022/08/05 19:42:48;;;;;;;11.35;6.40;;;19.50;99.90;;;;;;21047871;28;20036;-56
2022/08/05 19:52:50;;;;;;;5.50;4.45;;;19.50;99.90;;;;;;21062778;28;20036;-55
2022/08/05 20:02:56;;;;;;;6.25;2.78;;;20.50;97.70;;;;;;21044014;28;20037;-54
2022/08/05 20:12:58;;;;;;;4.45;2.30;;;21.20;95.10;;;;;;20978020;28;20036;-56
2022/08/05 20:23:03;;;;;;;3.13;2.60;;;20.90;95.10;;;;;;21144131;28;20439;-54
2022/08/05 20:33:05;;;;;;;2.95;2.65;;;20.50;95.90;;;;;;21126428;28;20389;-55
2022/08/05 20:43:09;;;;;;;2.42;2.05;;;20.20;96.40;;;;;;21127244;28;20138;-54
2022/08/05 20:53:11;;;;;;;5.03;2.20;;;20.00;96.70;;;;;;21142056;28;20035;-55
2022/08/05 21:03:14;;;;;;;4.50;2.60;;;19.90;97.10;;;;;;21074536;28;20040;-61
2022/08/05 21:13:17;;;;;;;2.40;2.20;;;19.70;97.20;;;;;;21057060;28;20441;-56
2022/08/05 21:23:20;;;;;;;4.32;2.15;;;19.70;97.10;;;;;;21043501;28;20040;-56
2022/08/05 21:33:22;;;;;;;2.28;1.80;;;19.80;97.10;;;;;;21039361;28;20043;-55
2022/08/05 21:43:25;;;;;;;2.50;2.30;;;19.80;96.70;;;;;;21054465;28;20098;-55
2022/08/05 21:53:27;;;;;;;2.22;1.95;;;19.70;96.80;;;;;;21115713;28;20108;-56
2022/08/05 22:03:32;;;;;;;1.92;1.75;;;19.50;96.80;;;;;;21112914;28;20048;-55
2022/08/05 22:13:35;;;;;;;1.70;1.60;;;19.40;96.90;;;;;;21052077;28;20036;-60
2022/08/05 22:33:58;;;;;;;3.47;1.70;;;19.20;96.50;;;;;;21050812;28;20056;-55
2022/08/05 22:44:00;;;;;;;2.13;1.40;;;19.10;96.20;;;;;;21050466;28;20039;-53
2022/08/05 22:54:03;;;;;;;1.58;1.42;;;19.00;96.00;;;;;;21049244;28;20036;-57
2022/08/05 23:04:07;;;;;;;1.40;1.13;;;19.00;96.20;;;;;;20949530;28;20357;-52
2022/08/05 23:14:10;;;;;;;1.42;1.33;;;18.80;96.70;;;;;;21042708;28;20374;-64
2022/08/05 23:24:12;;;;;;;3.17;1.50;;;18.60;96.80;;;;;;21041009;28;20036;-69
2022/08/05 23:34:15;;;;;;;1.27;1.00;;;18.60;96.60;;;;;;21038288;28;20040;-68
2022/08/05 23:44:19;;;;;;;0.88;0.85;;;18.70;95.80;;;;;;21047336;28;20518;-64
2022/08/05 23:54:23;;;;;;;0.85;0.70;;;18.70;95.20;;;;;;21047307;28;20032;-67
